Time;durP1;ratioP1;P1;durP2;ratioP2;P2;SDS_P1;SDS_P2;PMS_P1;PMS_P2;Temp;Humidity;BMP_temperature;BMP_pressure;BME280_temperature;BME280_humidity;BME280_pressure;Samples;Min_cycle;Max_cycle;Signal;HPM_P1;HPM_P2
2021/09/11 00:00:38;;;;;;;5.15;4.07;;;;;;;22.92;58.36;101455.59;4994354;28;20068;-73
2021/09/11 00:03:03;;;;;;;4.07;3.25;;;;;;;22.88;58.37;101444.22;5011624;28;20037;-73
2021/09/11 00:05:28;;;;;;;3.50;2.90;;;;;;;22.88;58.67;101452.13;5010727;28;20049;-73
2021/09/11 00:07:54;;;;;;;5.43;3.53;;;;;;;22.89;58.56;101448.59;5011573;28;20044;-73
2021/09/11 00:10:20;;;;;;;5.53;3.80;;;;;;;22.87;58.60;101436.31;5011659;28;20048;-73
2021/09/11 00:12:46;;;;;;;3.08;2.78;;;;;;;22.91;58.63;101452.09;5011613;28;20057;-73
2021/09/11 00:15:15;;;;;;;4.20;3.40;;;;;;;22.91;58.45;101438.03;4993888;28;20151;-73
2021/09/11 00:17:41;;;;;;;4.05;3.15;;;;;;;22.91;58.47;101448.59;5012139;28;20034;-73
2021/09/11 00:20:08;;;;;;;3.75;3.22;;;;;;;22.87;58.41;101442.47;5012621;28;20156;-73
2021/09/11 00:22:33;;;;;;;3.60;3.30;;;;;;;22.90;58.50;101447.72;5015097;28;20030;-73
2021/09/11 00:24:59;;;;;;;5.05;4.10;;;;;;;22.78;58.49;101432.94;5015939;28;20486;-73
2021/09/11 00:27:24;;;;;;;4.57;3.63;;;;;;;22.88;58.19;101444.22;4998660;28;20037;-79
2021/09/11 00:29:49;;;;;;;3.42;3.05;;;;;;;22.91;58.64;101448.59;5014719;28;20116;-79
2021/09/11 00:32:15;;;;;;;3.67;3.03;;;;;;;22.85;58.42;101438.97;4998557;28;20049;-79
2021/09/11 00:34:40;;;;;;;3.90;2.92;;;;;;;22.88;58.48;101448.63;5016874;28;20061;-79
2021/09/11 00:37:06;;;;;;;4.15;3.30;;;;;;;22.90;58.43;101447.72;4999081;28;20030;-79
2021/09/11 00:39:31;;;;;;;4.38;3.45;;;;;;;22.88;58.42;101435.44;4982445;28;20026;-79
2021/09/11 00:41:57;;;;;;;4.72;4.10;;;;;;;22.90;58.38;101441.56;5014842;28;20034;-79
2021/09/11 00:44:22;;;;;;;6.32;3.58;;;;;;;22.85;58.54;101430.22;5014829;28;20042;-79
2021/09/11 00:46:47;;;;;;;4.18;3.13;;;;;;;22.85;58.36;101438.97;4998135;28;20034;-79
2021/09/11 00:49:13;;;;;;;4.10;3.30;;;;;;;22.90;58.45;101444.19;4996496;28;20106;-79
2021/09/11 00:51:39;;;;;;;3.95;3.47;;;;;;;22.89;58.39;101445.97;5003814;28;20022;-78
2021/09/11 00:54:05;;;;;;;4.40;3.05;;;;;;;22.88;58.50;101440.72;5020970;28;20471;-78
2021/09/11 00:56:32;;;;;;;4.03;3.13;;;;;;;22.90;58.38;101437.16;5017224;28;20491;-79
2021/09/11 00:59:00;;;;;;;3.72;3.13;;;;;;;22.87;58.41;101439.84;5016273;28;20037;-79
2021/09/11 01:01:25;;;;;;;3.33;2.72;;;;;;;22.89;58.35;101434.53;5017822;28;20034;-79
2021/09/11 01:03:51;;;;;;;4.65;3.75;;;;;;;22.86;58.45;101434.56;5015920;28;20087;-79
2021/09/11 01:06:16;;;;;;;6.45;4.05;;;;;;;22.89;58.28;101447.72;5015815;28;20095;-78
2021/09/11 01:08:42;;;;;;;4.50;3.08;;;;;;;22.89;58.39;101445.09;4995872;28;20124;-78
2021/09/11 01:11:08;;;;;;;5.47;3.80;;;;;;;22.88;58.34;101446.84;5009352;28;20037;-79
2021/09/11 01:13:34;;;;;;;3.83;3.13;;;;;;;22.89;58.52;101445.09;5015907;28;20072;-79
2021/09/11 01:16:00;;;;;;;5.82;2.58;;;;;;;22.90;58.57;101450.34;4996337;28;20565;-79
2021/09/11 01:18:26;;;;;;;6.55;3.60;;;;;;;22.86;58.60;101440.72;5015902;28;20097;-78
2021/09/11 01:20:53;;;;;;;7.00;3.53;;;;;;;22.85;58.63;101438.13;4996769;28;20070;-78
2021/09/11 01:23:18;;;;;;;4.72;3.35;;;;;;;22.89;58.57;101440.69;5014353;28;20114;-79
2021/09/11 01:25:44;;;;;;;5.07;3.35;;;;;;;22.89;58.51;101442.44;5015552;28;20084;-79
2021/09/11 01:28:09;;;;;;;4.63;3.50;;;;;;;22.89;58.28;101442.44;5014396;28;20030;-79
2021/09/11 01:30:34;;;;;;;4.38;3.30;;;;;;;22.88;58.45;101431.03;5014365;28;20087;-79
2021/09/11 01:33:00;;;;;;;4.68;3.42;;;;;;;22.84;58.35;101429.34;5015402;28;20029;-79
2021/09/11 01:35:25;;;;;;;3.92;3.50;;;;;;;22.86;58.59;101430.19;5014221;28;20163;-79
2021/09/11 01:37:50;;;;;;;3.80;3.35;;;;;;;22.87;58.47;101431.03;4978619;28;20045;-79
2021/09/11 01:40:16;;;;;;;4.45;3.00;;;;;;;22.82;58.41;101428.50;5010738;28;20444;-79
2021/09/11 01:42:41;;;;;;;4.40;3.20;;;;;;;22.89;58.39;101435.41;5014037;28;20052;-79
2021/09/11 01:45:14;;;;;;;4.35;2.78;;;;;;;22.88;58.59;101438.06;5014215;28;20034;-78
2021/09/11 01:47:40;;;;;;;4.22;3.08;;;;;;;22.88;58.40;101433.66;5014750;28;20485;-79
2021/09/11 01:50:07;;;;;;;4.57;2.83;;;;;;;22.84;58.64;101432.00;5015171;28;20036;-79
2021/09/11 01:52:33;;;;;;;5.40;4.50;;;;;;;22.85;58.68;101436.34;5013753;28;20025;-79
2021/09/11 01:54:59;;;;;;;3.35;2.50;;;;;;;22.83;58.68;101437.28;5013285;28;20440;-79
2021/09/11 01:57:24;;;;;;;5.35;3.35;;;;;;;22.84;58.62;101426.72;5015181;28;20026;-79
2021/09/11 01:59:50;;;;;;;4.53;3.40;;;;;;;22.81;58.49;101429.38;4997435;28;20030;-78
2021/09/11 02:02:15;;;;;;;4.60;3.58;;;;;;;22.84;58.72;101432.00;5013381;28;20053;-79
2021/09/11 02:04:40;;;;;;;5.47;3.22;;;;;;;22.87;58.78;101437.19;5013951;28;20040;-79
2021/09/11 02:07:07;;;;;;;3.80;3.13;;;;;;;22.87;58.65;101436.31;4981580;28;20025;-79
2021/09/11 02:09:34;;;;;;;8.32;3.40;;;;;;;22.82;58.62;101420.59;4996806;28;20118;-79
2021/09/11 02:12:00;;;;;;;4.85;3.40;;;;;;;22.86;58.63;101432.81;5013735;28;20022;-79
2021/09/11 02:14:26;;;;;;;3.72;3.22;;;;;;;22.89;58.77;101445.09;5013268;28;20018;-79
2021/09/11 02:16:52;;;;;;;3.40;3.00;;;;;;;22.85;58.75;101436.34;5015405;28;20105;-78
2021/09/11 02:19:17;;;;;;;5.40;2.83;;;;;;;22.85;58.48;101438.97;5014049;28;20054;-79
2021/09/11 02:21:43;;;;;;;3.70;2.75;;;;;;;22.88;58.57;101433.66;5032220;28;20057;-79
2021/09/11 02:24:09;;;;;;;3.88;3.45;;;;;;;22.86;58.59;101440.72;5034072;28;20044;-78
2021/09/11 02:26:35;;;;;;;3.75;3.45;;;;;;;22.88;58.60;101433.66;5034044;28;20041;-79
2021/09/11 02:29:01;;;;;;;4.55;3.38;;;;;;;22.88;58.60;101432.78;5016825;28;20041;-80
2021/09/11 02:31:26;;;;;;;5.50;3.20;;;;;;;22.89;58.63;101442.44;5016369;28;20042;-79
2021/09/11 02:33:52;;;;;;;3.08;2.45;;;;;;;22.84;58.66;101436.38;5000500;28;20033;-79
2021/09/11 02:36:17;;;;;;;3.78;2.83;;;;;;;22.70;58.73;101407.53;5016187;28;20036;-79
2021/09/11 02:38:43;;;;;;;3.78;3.00;;;;;;;22.85;58.51;101424.94;5016556;28;20029;-79
2021/09/11 02:41:09;;;;;;;3.17;2.80;;;;;;;22.86;58.63;101424.91;4995949;28;20029;-79
2021/09/11 02:43:34;;;;;;;3.78;3.15;;;;;;;22.86;58.81;101440.72;5007458;28;20063;-79
2021/09/11 02:46:00;;;;;;;4.45;3.33;;;;;;;22.85;58.56;101438.13;5015497;28;20041;-78
2021/09/11 02:48:25;;;;;;;4.30;3.20;;;;;;;22.88;58.63;101440.72;5016510;28;20107;-79
2021/09/11 02:50:51;;;;;;;3.15;2.70;;;;;;;22.85;58.79;101436.34;5033443;28;20120;-79
2021/09/11 02:53:16;;;;;;;4.60;3.47;;;;;;;22.87;58.68;101439.84;4999386;28;20456;-78
2021/09/11 02:55:42;;;;;;;4.47;2.80;;;;;;;22.88;58.67;101431.03;4996497;28;20038;-79
2021/09/11 02:58:07;;;;;;;3.28;2.65;;;;;;;22.81;58.82;101416.19;5015845;28;20395;-79
2021/09/11 03:00:33;;;;;;;3.40;3.10;;;;;;;22.86;58.84;101416.13;5032975;28;20486;-79
2021/09/11 03:02:59;;;;;;;4.93;3.03;;;;;;;22.81;58.84;101408.28;5015758;28;20083;-79
2021/09/11 03:05:25;;;;;;;5.28;3.55;;;;;;;22.87;58.71;101421.38;5003895;28;20053;-78
2021/09/11 03:07:50;;;;;;;3.38;3.08;;;;;;;22.85;58.81;101423.16;5039317;28;20438;-78
2021/09/11 03:10:16;;;;;;;4.03;3.60;;;;;;;22.86;58.84;101413.47;5018816;28;20053;-73
2021/09/11 03:12:44;;;;;;;5.30;2.90;;;;;;;22.78;58.72;101409.19;5015554;28;20099;-73
2021/09/11 03:15:10;;;;;;;3.88;2.97;;;;;;;22.87;58.71;101424.00;5015286;28;20034;-73
2021/09/11 03:17:36;;;;;;;4.72;3.17;;;;;;;22.84;58.74;101415.28;5014902;28;20037;-73
2021/09/11 03:20:02;;;;;;;4.43;3.35;;;;;;;22.82;58.84;101417.94;5032268;28;20098;-73
2021/09/11 03:22:27;;;;;;;4.50;3.38;;;;;;;22.85;58.81;101436.34;5025441;28;20025;-73
2021/09/11 03:24:52;;;;;;;3.58;2.90;;;;;;;22.67;58.67;101397.03;4981927;28;20387;-73
2021/09/11 03:27:18;;;;;;;4.25;3.15;;;;;;;22.84;58.47;101423.22;5032418;28;20060;-73
2021/09/11 03:29:43;;;;;;;6.25;3.72;;;;;;;22.81;58.82;101426.75;5015711;28;20107;-74
2021/09/11 03:32:09;;;;;;;3.83;2.85;;;;;;;22.83;58.70;101426.72;4998477;28;20467;-73
2021/09/11 03:34:34;;;;;;;3.63;2.38;;;;;;;22.86;58.74;101429.31;5014803;28;20428;-73
2021/09/11 03:36:59;;;;;;;4.05;3.28;;;;;;;22.85;58.76;101432.88;5015391;28;20021;-73
2021/09/11 03:39:25;;;;;;;4.88;3.47;;;;;;;22.87;58.77;101437.19;4998434;28;20030;-73
2021/09/11 03:41:51;;;;;;;3.72;3.17;;;;;;;22.82;58.88;101427.63;5015328;28;20111;-73
2021/09/11 03:44:16;;;;;;;4.20;2.95;;;;;;;22.83;58.87;101424.09;5014559;28;20470;-73
2021/09/11 03:46:42;;;;;;;4.38;3.30;;;;;;;22.87;58.88;101436.31;4979021;28;20092;-73
2021/09/11 03:49:07;;;;;;;5.07;3.42;;;;;;;22.86;58.81;101430.19;5027009;28;20034;-73
2021/09/11 03:51:34;;;;;;;4.07;2.97;;;;;;;22.85;58.98;101438.13;5032605;28;20103;-73
2021/09/11 03:54:00;;;;;;;4.40;2.78;;;;;;;22.84;58.84;101433.75;4980552;28;20026;-73
2021/09/11 03:56:25;;;;;;;3.90;2.72;;;;;;;22.85;58.92;101441.63;4999531;28;20033;-73
2021/09/11 03:58:51;;;;;;;5.40;3.25;;;;;;;22.86;58.87;101434.56;4999595;28;20077;-73
2021/09/11 04:01:16;;;;;;;4.60;2.75;;;;;;;22.76;58.87;101424.16;5035903;28;20139;-73
2021/09/11 04:03:41;;;;;;;4.53;2.72;;;;;;;22.86;58.81;101446.00;5002599;28;20030;-73
2021/09/11 04:06:07;;;;;;;3.10;2.58;;;;;;;22.84;58.69;101441.66;5018389;28;20069;-73
2021/09/11 04:08:32;;;;;;;5.53;2.97;;;;;;;22.84;58.87;101436.38;5001843;28;20033;-73
2021/09/11 04:10:58;;;;;;;4.28;3.03;;;;;;;22.82;59.01;101438.16;5018307;28;20029;-73
2021/09/11 04:13:24;;;;;;;4.10;3.15;;;;;;;22.79;58.77;101437.31;5012978;28;20033;-73
2021/09/11 04:15:50;;;;;;;5.20;3.22;;;;;;;22.86;59.06;101446.00;5018131;28;20040;-73
2021/09/11 04:18:15;;;;;;;7.03;3.03;;;;;;;22.82;59.23;101436.41;5018108;28;20040;-73
2021/09/11 04:20:41;;;;;;;4.07;3.00;;;;;;;22.84;58.80;101437.25;5018151;28;20053;-73
2021/09/11 04:23:06;;;;;;;5.25;3.15;;;;;;;22.85;58.79;101441.63;5017777;28;20057;-73
2021/09/11 04:25:32;;;;;;;4.97;3.03;;;;;;;22.82;58.69;101432.91;5001208;28;20453;-73
2021/09/11 04:27:57;;;;;;;4.03;2.92;;;;;;;22.80;58.79;101436.44;5018021;28;20033;-73
2021/09/11 04:30:22;;;;;;;5.03;2.92;;;;;;;22.86;59.00;101439.84;5002032;28;20040;-73
2021/09/11 04:32:48;;;;;;;4.25;2.85;;;;;;;22.83;58.64;101439.91;5035833;28;20076;-73
2021/09/11 04:35:13;;;;;;;5.63;3.88;;;;;;;22.78;58.92;101434.69;5035316;28;20063;-73
2021/09/11 04:37:39;;;;;;;4.50;3.08;;;;;;;22.80;58.97;101432.91;5001197;28;20045;-73
2021/09/11 04:40:05;;;;;;;9.18;3.75;;;;;;;22.85;58.80;101441.63;4998143;28;20144;-73
2021/09/11 04:42:30;;;;;;;5.13;3.55;;;;;;;22.82;58.79;101446.09;5017469;28;20033;-73
2021/09/11 04:44:56;;;;;;;5.60;3.33;;;;;;;22.85;58.91;101451.31;5017868;28;20037;-79
2021/09/11 04:47:21;;;;;;;3.75;3.22;;;;;;;22.80;58.91;101439.06;5018335;28;20073;-79
2021/09/11 04:49:47;;;;;;;4.47;3.42;;;;;;;22.82;58.82;101441.69;5035932;28;20152;-79
2021/09/11 04:52:12;;;;;;;6.45;3.92;;;;;;;22.83;58.61;101443.44;5017765;28;20067;-79
2021/09/11 04:54:38;;;;;;;7.80;3.55;;;;;;;22.80;58.69;101435.56;5017533;28;20112;-79
2021/09/11 04:57:03;;;;;;;4.68;3.28;;;;;;;22.84;58.83;101439.91;5001427;28;20037;-79
2021/09/11 04:59:29;;;;;;;8.00;4.22;;;;;;;22.83;58.70;101448.69;5002126;28;20068;-78
2021/09/11 05:01:56;;;;;;;3.72;3.15;;;;;;;22.84;58.80;101447.81;5001019;28;20032;-79
2021/09/11 05:04:21;;;;;;;3.38;3.08;;;;;;;22.85;58.79;101448.69;5017968;28;20035;-79
2021/09/11 05:06:47;;;;;;;5.53;3.40;;;;;;;22.82;58.76;101441.69;5016651;28;20108;-79
2021/09/11 05:09:12;;;;;;;6.13;3.58;;;;;;;22.84;58.87;101446.94;5017572;28;20033;-79
2021/09/11 05:11:37;;;;;;;3.85;3.20;;;;;;;22.79;58.79;101445.22;5001469;28;20120;-79
2021/09/11 05:14:03;;;;;;;3.83;2.97;;;;;;;22.78;58.87;101447.88;5018207;28;20057;-79
2021/09/11 05:16:28;;;;;;;4.13;3.15;;;;;;;22.83;58.93;101459.25;5017411;28;20026;-78
2021/09/11 05:18:53;;;;;;;3.55;3.22;;;;;;;22.78;58.97;101451.38;5004667;28;20025;-77
2021/09/11 05:21:19;;;;;;;5.28;3.78;;;;;;;22.84;59.02;101466.28;4988132;28;20391;-80
2021/09/11 05:23:44;;;;;;;8.25;3.70;;;;;;;22.83;58.92;101461.88;5020952;28;20033;-79
2021/09/11 05:26:10;;;;;;;4.88;3.65;;;;;;;22.84;58.96;101454.84;5024083;28;20033;-79
2021/09/11 05:28:35;;;;;;;6.63;4.20;;;;;;;22.70;58.93;101449.72;5006837;28;20036;-79
2021/09/11 05:31:01;;;;;;;9.45;5.93;;;;;;;22.54;59.01;101438.50;5018694;28;20387;-78
2021/09/11 05:33:26;;;;;;;14.73;5.88;;;;;;;22.48;59.15;101457.00;5036605;28;20029;-79
2021/09/11 05:35:52;;;;;;;7.40;4.40;;;;;;;22.41;59.23;101453.56;5018710;28;20033;-79
2021/09/11 05:38:17;;;;;;;29.75;6.45;;;;;;;22.36;59.16;101449.25;5018507;28;20041;-78
2021/09/11 05:40:43;;;;;;;10.60;4.55;;;;;;;22.39;59.49;101457.13;5018096;28;20033;-78
2021/09/11 05:43:08;;;;;;;14.20;5.10;;;;;;;22.34;59.49;101459.78;5036130;28;20032;-78
2021/09/11 05:45:34;;;;;;;11.65;5.07;;;;;;;22.28;59.89;101467.78;5001440;28;20025;-79
2021/09/11 05:47:59;;;;;;;9.80;6.47;;;;;;;22.23;59.74;101460.81;5001742;28;20430;-79
2021/09/11 05:50:25;;;;;;;10.65;6.38;;;;;;;22.20;59.90;101463.50;5034752;28;20037;-79
2021/09/11 05:52:50;;;;;;;15.18;6.68;;;;;;;22.12;60.12;101466.19;5017199;28;20057;-79
2021/09/11 05:55:16;;;;;;;12.02;7.30;;;;;;;22.09;60.44;101471.47;5002358;28;20068;-79
2021/09/11 05:57:42;;;;;;;13.43;6.65;;;;;;;22.21;60.19;101474.00;4981558;28;20406;-78
2021/09/11 06:00:11;;;;;;;11.68;6.55;;;;;;;22.24;59.87;101481.88;4998820;28;20472;-79
2021/09/11 06:02:36;;;;;;;12.75;7.60;;;;;;;22.23;59.96;101485.38;5016231;28;20030;-78
2021/09/11 06:05:01;;;;;;;9.65;7.20;;;;;;;22.19;59.98;101480.19;4999564;28;20041;-78
2021/09/11 06:07:27;;;;;;;11.20;6.80;;;;;;;22.13;60.03;101478.47;5001038;28;20029;-78
2021/09/11 06:09:52;;;;;;;14.70;6.72;;;;;;;22.19;60.17;101488.97;5017458;28;20434;-79
2021/09/11 06:12:17;;;;;;;10.60;6.95;;;;;;;22.14;60.24;101495.16;5017504;28;20036;-79
2021/09/11 06:14:43;;;;;;;9.20;6.93;;;;;;;22.08;60.38;101493.44;5034580;28;20036;-78
2021/09/11 06:17:09;;;;;;;13.70;7.10;;;;;;;22.12;60.44;101500.44;5016927;28;20478;-78
2021/09/11 06:19:35;;;;;;;10.63;7.45;;;;;;;22.13;60.30;101501.31;5000452;28;20452;-79
2021/09/11 06:22:01;;;;;;;13.00;6.53;;;;;;;22.12;60.44;101502.19;5037225;28;20382;-79
2021/09/11 06:24:27;;;;;;;11.90;7.53;;;;;;;22.08;60.51;101498.69;5034019;28;20026;-79
2021/09/11 06:26:52;;;;;;;13.40;7.68;;;;;;;22.11;60.59;101506.59;5034706;28;20033;-79
2021/09/11 06:29:18;;;;;;;12.00;7.47;;;;;;;22.05;60.33;101493.50;5000706;28;20083;-79
2021/09/11 06:31:43;;;;;;;9.98;5.88;;;;;;;22.04;60.67;101500.53;4984177;28;20025;-79
2021/09/11 06:34:11;;;;;;;10.05;7.03;;;;;;;21.96;60.93;101491.75;5015706;28;20475;-78
2021/09/11 06:36:36;;;;;;;12.13;6.88;;;;;;;21.96;61.45;101504.06;4999743;28;20482;-79
2021/09/11 06:39:02;;;;;;;10.20;6.45;;;;;;;21.95;61.26;101511.06;4996642;28;20069;-79
2021/09/11 06:41:27;;;;;;;11.63;7.20;;;;;;;21.92;61.23;101502.34;5033830;28;20143;-78
2021/09/11 06:43:52;;;;;;;13.63;7.50;;;;;;;21.89;61.42;101521.69;4997335;28;20168;-78
2021/09/11 06:46:18;;;;;;;13.15;7.13;;;;;;;21.89;61.45;101511.16;5033417;28;20052;-78
2021/09/11 06:48:43;;;;;;;12.60;7.05;;;;;;;21.95;61.33;101518.97;5032894;28;20040;-79
2021/09/11 06:51:13;;;;;;;11.82;7.13;;;;;;;21.92;61.23;101507.63;5033941;28;20032;-79
2021/09/11 06:53:38;;;;;;;12.73;6.18;;;;;;;21.97;61.20;101517.22;5016242;28;20491;-79
2021/09/11 06:56:04;;;;;;;15.50;6.13;;;;;;;21.99;61.22;101510.22;5016029;28;20044;-78
2021/09/11 06:58:29;;;;;;;10.75;6.38;;;;;;;22.00;61.21;101517.22;4999443;28;20029;-79
2021/09/11 07:00:55;;;;;;;14.48;6.03;;;;;;;22.05;60.74;101527.72;4998476;28;20029;-79
2021/09/11 07:03:20;;;;;;;10.23;5.68;;;;;;;22.03;61.01;101526.88;5032944;28;20037;-79
2021/09/11 07:05:46;;;;;;;11.48;6.85;;;;;;;22.00;61.02;101516.34;4999414;28;20044;-80
2021/09/11 07:08:11;;;;;;;9.02;5.38;;;;;;;22.00;61.09;101524.25;4999173;28;20546;-79
2021/09/11 07:10:37;;;;;;;9.77;5.97;;;;;;;22.02;61.10;101539.16;5015693;28;20438;-79
2021/09/11 07:13:02;;;;;;;15.10;6.38;;;;;;;22.05;60.97;101525.97;4995988;28;20030;-79
2021/09/11 07:15:27;;;;;;;11.60;5.40;;;;;;;22.03;60.86;101529.50;4981309;28;20030;-79
2021/09/11 07:17:53;;;;;;;9.70;5.80;;;;;;;22.02;60.89;101527.75;4980164;28;20087;-78
2021/09/11 07:20:18;;;;;;;10.35;6.57;;;;;;;21.96;61.11;101528.63;4989029;28;20534;-73
2021/09/11 07:22:44;;;;;;;17.48;5.70;;;;;;;22.06;60.98;101534.75;4996050;28;20087;-73
2021/09/11 07:25:10;;;;;;;12.48;5.75;;;;;;;22.02;60.99;101533.88;4998583;28;20025;-73
2021/09/11 07:27:35;;;;;;;10.05;5.63;;;;;;;22.03;61.13;101542.66;5015752;28;20029;-73
2021/09/11 07:30:00;;;;;;;13.45;6.45;;;;;;;22.08;60.97;101538.22;5014999;28;20096;-73
2021/09/11 07:32:26;;;;;;;12.32;6.07;;;;;;;22.04;61.17;101531.25;4997670;28;20026;-73
2021/09/11 07:34:52;;;;;;;11.75;5.68;;;;;;;22.08;61.16;101544.34;5031154;28;20051;-73
2021/09/11 07:37:18;;;;;;;10.45;5.18;;;;;;;22.08;61.18;101541.72;5016422;28;20036;-73
2021/09/11 07:39:43;;;;;;;12.00;6.60;;;;;;;22.10;60.98;101541.72;5014784;28;20033;-73
2021/09/11 07:42:08;;;;;;;11.07;5.47;;;;;;;22.12;60.94;101547.84;4982306;28;20029;-73
2021/09/11 07:44:34;;;;;;;10.35;5.15;;;;;;;22.20;60.82;101550.44;5015382;28;20447;-73
2021/09/11 07:47:00;;;;;;;10.20;5.47;;;;;;;22.05;61.60;101546.16;5015874;28;20467;-73
2021/09/11 07:49:25;;;;;;;10.45;6.40;;;;;;;21.73;62.14;101552.50;5015400;28;20079;-72
2021/09/11 07:51:50;;;;;;;16.67;5.78;;;;;;;21.73;62.78;101556.91;5032902;28;20040;-73
2021/09/11 07:54:19;;;;;;;12.32;5.45;;;;;;;21.67;62.60;101557.84;5014309;28;20033;-73
2021/09/11 07:56:44;;;;;;;12.30;5.95;;;;;;;21.66;62.43;101555.22;5014762;28;20040;-73
2021/09/11 07:59:09;;;;;;;8.98;4.82;;;;;;;21.72;62.66;101563.94;5014776;28;20025;-73
2021/09/11 08:01:35;;;;;;;18.73;6.22;;;;;;;21.69;62.54;101560.44;4997369;28;20496;-73
2021/09/11 08:04:00;;;;;;;22.10;5.60;;;;;;;21.66;62.55;101574.50;5014126;28;20383;-73
2021/09/11 08:06:25;;;;;;;13.93;6.05;;;;;;;21.52;62.92;101563.19;4998480;28;20021;-74
2021/09/11 08:08:51;;;;;;;13.65;5.63;;;;;;;21.70;62.50;101573.59;4998872;28;20041;-73
2021/09/11 08:11:17;;;;;;;12.32;5.82;;;;;;;21.75;62.45;101570.94;5015325;28;20068;-74
2021/09/11 08:13:43;;;;;;;10.15;5.13;;;;;;;21.83;62.53;101579.63;5015432;28;20018;-74
2021/09/11 08:16:09;;;;;;;13.38;5.70;;;;;;;21.71;62.74;101577.97;5014834;28;20044;-74
2021/09/11 08:18:34;;;;;;;11.38;6.13;;;;;;;21.63;63.32;101577.16;5015305;28;20021;-74
2021/09/11 08:20:59;;;;;;;11.68;5.43;;;;;;;21.67;63.07;101580.66;4998704;28;20488;-73
2021/09/11 08:23:25;;;;;;;10.95;5.35;;;;;;;21.65;62.93;101580.66;5014512;28;20083;-74
2021/09/11 08:25:50;;;;;;;9.65;5.07;;;;;;;21.57;63.21;101566.66;4981597;28;20129;-74
2021/09/11 08:28:16;;;;;;;6.65;4.95;;;;;;;21.64;63.12;101583.31;4998798;28;20111;-74
2021/09/11 08:30:42;;;;;;;12.80;5.30;;;;;;;21.60;63.51;101578.94;5014928;28;20080;-74
2021/09/11 08:33:12;;;;;;;8.98;5.40;;;;;;;21.70;63.41;101589.38;5014494;28;20051;-74
2021/09/11 08:35:38;;;;;;;8.45;5.63;;;;;;;21.76;63.30;101588.47;5014852;28;20021;-72
2021/09/11 08:38:03;;;;;;;10.70;5.65;;;;;;;21.71;63.27;101590.25;4998408;28;20152;-73
2021/09/11 08:40:28;;;;;;;14.15;7.22;;;;;;;21.66;63.80;101590.31;4999256;28;20036;-74
2021/09/11 08:42:54;;;;;;;9.68;5.60;;;;;;;21.71;63.76;101599.03;5001207;28;20498;-75
2021/09/11 08:45:19;;;;;;;12.88;6.47;;;;;;;21.63;63.87;101598.22;5017195;28;20045;-75
2021/09/11 08:47:45;;;;;;;9.27;5.40;;;;;;;21.61;63.94;101593.84;5001542;28;20029;-73
2021/09/11 08:50:13;;;;;;;10.30;6.25;;;;;;;21.59;64.01;101607.00;5017875;28;20519;-73
2021/09/11 08:52:46;;;;;;;13.90;6.35;;;;;;;21.62;63.74;101601.72;5017529;28;20026;-73
2021/09/11 08:55:13;;;;;;;9.18;5.88;;;;;;;21.72;63.79;101606.03;5035123;28;20514;-76
2021/09/11 08:57:39;;;;;;;15.15;6.05;;;;;;;21.77;63.26;101605.16;5001580;28;20036;-76
2021/09/11 09:00:08;;;;;;;11.70;6.20;;;;;;;21.86;62.88;101607.72;5001821;28;20029;-73
2021/09/11 09:02:34;;;;;;;9.02;5.68;;;;;;;21.88;62.62;101603.31;5018178;28;20022;-77
2021/09/11 09:05:02;;;;;;;11.50;5.38;;;;;;;21.84;63.06;101613.00;5017185;28;20048;-74
2021/09/11 09:07:39;;;;;;;8.30;5.28;;;;;;;21.90;62.59;101610.31;5017998;28;20156;-72
2021/09/11 09:10:07;;;;;;;6.07;4.93;;;;;;;22.01;62.37;101612.91;5017735;28;20017;-72
2021/09/11 09:12:34;;;;;;;11.43;5.85;;;;;;;21.98;62.16;101602.38;4998535;28;20037;-74
2021/09/11 09:15:03;;;;;;;13.85;5.22;;;;;;;22.00;62.13;101612.03;5017249;28;20031;-74
2021/09/11 09:17:52;;;;;;;11.38;5.78;;;;;;;22.03;62.03;101614.66;5018462;28;20058;-74
2021/09/11 09:20:21;;;;;;;7.63;6.40;;;;;;;22.06;61.98;101614.63;5017870;28;20045;-74
2021/09/11 09:23:13;;;;;;;12.43;6.45;;;;;;;21.96;62.20;101622.56;5017167;28;20033;-75
2021/09/11 09:25:39;;;;;;;8.27;5.38;;;;;;;21.99;61.92;101610.28;5017491;28;20037;-75
2021/09/11 09:28:07;;;;;;;13.07;5.22;;;;;;;21.99;61.83;101604.16;5001751;28;20029;-74
2021/09/11 09:30:42;;;;;;;8.05;4.65;;;;;;;22.03;61.83;101613.78;5034700;28;20029;-74
2021/09/11 09:33:22;;;;;;;12.80;5.57;;;;;;;22.09;61.34;101613.72;5017261;28;20067;-74
2021/09/11 09:35:48;;;;;;;9.15;5.70;;;;;;;22.15;61.39;101621.59;5035032;28;20028;-75
2021/09/11 09:38:14;;;;;;;13.68;5.63;;;;;;;22.21;61.32;101625.91;5018116;28;20479;-75
2021/09/11 09:40:45;;;;;;;7.80;5.03;;;;;;;22.28;61.28;101620.59;5017638;28;20022;-73
2021/09/11 09:43:13;;;;;;;7.88;5.15;;;;;;;22.23;61.13;101619.75;5017144;28;20041;-74
2021/09/11 09:45:39;;;;;;;7.43;5.05;;;;;;;22.21;61.21;101624.16;5020540;28;20025;-74
2021/09/11 09:48:10;;;;;;;6.45;4.85;;;;;;;22.19;61.29;101625.97;5039182;28;20036;-77
2021/09/11 09:50:40;;;;;;;6.80;5.43;;;;;;;22.26;60.99;101637.31;5022490;28;20048;-76
2021/09/11 09:53:07;;;;;;;7.95;5.00;;;;;;;22.22;61.17;101625.91;5000431;28;20046;-76
2021/09/11 09:55:33;;;;;;;10.02;5.85;;;;;;;22.21;60.99;101624.16;5016939;28;20029;-76
2021/09/11 09:58:00;;;;;;;9.90;6.25;;;;;;;22.12;61.29;101610.19;5001435;28;20033;-76
2021/09/11 10:00:25;;;;;;;9.05;5.38;;;;;;;22.22;61.08;101631.19;5017548;28;20049;-79
2021/09/11 10:02:51;;;;;;;6.20;5.07;;;;;;;22.26;61.21;101630.28;5017561;28;20077;-76
2021/09/11 10:05:20;;;;;;;8.60;6.18;;;;;;;22.25;61.37;101631.16;5017328;28;20032;-76
2021/09/11 10:08:05;;;;;;;6.75;5.47;;;;;;;22.33;61.04;101628.47;5017234;28;20028;-77
2021/09/11 10:10:34;;;;;;;11.50;6.18;;;;;;;22.25;61.03;101614.47;5017409;28;20033;-77
2021/09/11 10:13:05;;;;;;;7.57;6.25;;;;;;;22.29;60.97;101625.00;5017099;28;20107;-76
2021/09/11 10:15:38;;;;;;;8.85;5.40;;;;;;;22.31;61.04;101617.06;5034875;28;20021;-76
2021/09/11 10:18:27;;;;;;;14.07;6.25;;;;;;;22.27;61.24;101616.22;5002485;28;20036;-79
2021/09/11 10:21:39;;;;;;;8.02;5.68;;;;;;;22.35;60.95;101624.03;5034289;28;20053;-76
2021/09/11 10:24:11;;;;;;;10.57;5.72;;;;;;;22.37;60.97;101620.50;5023476;28;20060;-76
2021/09/11 10:26:52;;;;;;;6.60;5.47;;;;;;;22.46;60.87;101630.09;5032165;28;20040;-77
2021/09/11 10:29:35;;;;;;;10.13;6.30;;;;;;;22.48;61.53;101624.81;5054736;28;20036;-77
2021/09/11 10:32:24;;;;;;;7.28;5.60;;;;;;;22.50;61.32;101623.91;5029255;28;20022;-76
2021/09/11 10:34:51;;;;;;;10.13;5.07;;;;;;;22.50;60.83;101616.00;5024581;28;20036;-77
2021/09/11 10:37:46;;;;;;;8.43;5.35;;;;;;;22.51;61.29;101612.47;5036315;28;20048;-76
2021/09/11 10:40:23;;;;;;;13.45;6.25;;;;;;;22.53;60.73;101612.47;5054219;28;20025;-77
2021/09/11 10:43:09;;;;;;;12.10;5.75;;;;;;;22.52;60.99;101614.22;5047622;28;20025;-77
2021/09/11 10:45:47;;;;;;;10.55;6.50;;;;;;;22.47;61.03;101608.13;5027397;28;20030;-77
2021/09/11 10:48:31;;;;;;;10.35;6.40;;;;;;;22.52;60.64;101616.88;5015618;28;20482;-77
2021/09/11 10:50:57;;;;;;;8.77;6.47;;;;;;;22.50;60.67;101621.28;5025780;28;20094;-77
2021/09/11 10:53:24;;;;;;;9.52;5.78;;;;;;;22.55;60.85;101613.34;5040343;28;20021;-76
2021/09/11 10:55:50;;;;;;;10.57;6.22;;;;;;;22.58;61.25;101610.69;4996673;28;20041;-76
2021/09/11 10:58:23;;;;;;;12.77;6.22;;;;;;;22.64;60.97;101621.16;5015072;28;20033;-76
2021/09/11 11:01:06;;;;;;;10.25;6.15;;;;;;;22.67;60.81;101615.84;4991641;28;20049;-76
2021/09/11 11:03:32;;;;;;;6.18;5.35;;;;;;;22.68;61.42;101617.59;5015583;28;20080;-80
2021/09/11 11:06:01;;;;;;;9.80;5.95;;;;;;;22.68;61.37;101626.38;5006088;28;20060;-80
2021/09/11 11:08:32;;;;;;;9.98;5.75;;;;;;;22.70;61.07;101629.00;5036179;28;20391;-80
2021/09/11 11:11:02;;;;;;;6.38;5.47;;;;;;;22.68;61.00;101617.59;5054023;28;20538;-80
2021/09/11 11:13:27;;;;;;;8.85;5.18;;;;;;;22.72;61.04;101617.53;5036139;28;20025;-80
2021/09/11 11:15:56;;;;;;;5.70;4.40;;;;;;;22.72;61.04;101625.44;5019536;28;20029;-80
2021/09/11 11:18:22;;;;;;;6.40;5.47;;;;;;;22.48;61.32;101582.63;5053597;28;20036;-80
2021/09/11 11:20:48;;;;;;;7.47;6.13;;;;;;;22.74;61.45;101628.94;5016037;28;20041;-79